createdAt,value
2023-11-14T00:02:02.137Z,16.17
2023-11-14T00:04:30.567Z,17.40
2023-11-14T00:07:01.030Z,16.37
2023-11-14T00:09:29.441Z,15.53
2023-11-14T00:11:58.559Z,16.30
2023-11-14T00:14:27.820Z,14.53
2023-11-14T00:16:56.083Z,14.10
2023-11-14T00:19:24.533Z,15.13
2023-11-14T00:21:52.829Z,14.67
2023-11-14T00:24:20.987Z,14.30
2023-11-14T00:26:49.227Z,13.00
2023-11-14T00:29:17.990Z,13.10
2023-11-14T00:31:45.774Z,12.40
2023-11-14T00:34:13.895Z,13.97
2023-11-14T00:36:45.041Z,13.10
2023-11-14T00:39:13.276Z,11.87
2023-11-14T00:41:41.826Z,12.73
2023-11-14T00:44:10.537Z,12.53
2023-11-14T00:46:38.940Z,13.30
2023-11-14T00:49:08.625Z,12.50
2023-11-14T00:51:41.496Z,11.50
2023-11-14T00:54:10.084Z,12.03
2023-11-14T00:56:40.283Z,12.27
2023-11-14T00:59:10.215Z,12.60
2023-11-14T01:01:38.397Z,12.70
2023-11-14T01:04:11.881Z,13.00
2023-11-14T01:06:40.218Z,11.87
2023-11-14T01:09:10.535Z,12.23
2023-11-14T01:11:38.814Z,11.73
2023-11-14T01:14:07.264Z,12.23
2023-11-14T01:16:35.651Z,11.90
2023-11-14T01:19:04.046Z,11.20
2023-11-14T01:21:32.880Z,11.00
2023-11-14T01:24:01.248Z,11.60
2023-11-14T01:26:35.759Z,11.57
2023-11-14T01:29:04.656Z,11.97
2023-11-14T01:31:34.511Z,12.07
2023-11-14T01:34:04.342Z,11.27
2023-11-14T01:36:33.843Z,11.67
2023-11-14T01:39:02.081Z,11.23
2023-11-14T01:41:30.441Z,10.97
2023-11-14T01:43:58.581Z,10.97
2023-11-14T01:46:26.692Z,11.10
2023-11-14T01:48:54.276Z,10.97
2023-11-14T01:51:24.844Z,11.17
2023-11-14T01:53:53.742Z,11.97
2023-11-14T01:56:22.460Z,11.37
2023-11-14T01:58:52.079Z,11.83
2023-11-14T02:01:24.648Z,11.93
2023-11-14T02:03:53.443Z,11.93
2023-11-14T02:06:22.289Z,12.03
2023-11-14T02:08:50.798Z,12.60
2023-11-14T02:11:19.218Z,12.10
2023-11-14T02:13:47.303Z,11.37
2023-11-14T02:16:15.551Z,12.23
2023-11-14T02:18:43.960Z,13.63
2023-11-14T02:21:14.378Z,14.23
2023-11-14T02:23:48.471Z,15.17
2023-11-14T02:26:17.786Z,17.97
2023-11-14T02:28:46.290Z,17.00
2023-11-14T02:31:14.779Z,17.47
2023-11-14T02:33:43.240Z,17.87
2023-11-14T02:36:11.562Z,18.63
2023-11-14T02:38:39.787Z,16.27
2023-11-14T02:41:07.711Z,13.80
2023-11-14T02:43:36.252Z,14.80
2023-11-14T02:46:04.736Z,12.30
2023-11-14T02:48:32.951Z,12.07
2023-11-14T02:51:01.227Z,12.07
2023-11-14T02:53:29.899Z,12.83
2023-11-14T02:55:58.142Z,13.73
2023-11-14T02:58:26.272Z,13.90
2023-11-14T03:00:54.011Z,14.03
2023-11-14T03:03:22.625Z,14.13
2023-11-14T03:05:50.503Z,14.10
2023-11-14T03:08:19.089Z,14.83
2023-11-14T03:10:47.376Z,14.80
2023-11-14T03:13:15.868Z,17.80
2023-11-14T03:15:44.678Z,15.13
2023-11-14T03:18:12.683Z,16.60
2023-11-14T03:20:42.231Z,16.53
2023-11-14T03:23:10.289Z,15.57
2023-11-14T03:25:38.230Z,16.10
2023-11-14T03:28:06.527Z,18.60
2023-11-14T03:30:39.289Z,21.87
2023-11-14T03:33:07.799Z,21.43
2023-11-14T03:35:35.631Z,20.93
2023-11-14T03:38:03.755Z,23.97
2023-11-14T03:40:31.465Z,25.17
2023-11-14T03:42:59.861Z,25.63
2023-11-14T03:45:30.093Z,26.33
2023-11-14T03:47:59.361Z,27.77
2023-11-14T03:50:29.767Z,28.13
2023-11-14T03:52:57.509Z,26.30
2023-11-14T03:55:25.895Z,25.67
2023-11-14T03:57:54.104Z,24.40
2023-11-14T04:00:22.084Z,21.23
2023-11-14T04:02:50.510Z,21.00
2023-11-14T04:05:18.656Z,20.43
2023-11-14T04:07:46.930Z,19.33
2023-11-14T04:10:15.112Z,21.37
2023-11-14T04:12:45.247Z,20.47
2023-11-14T04:15:13.506Z,21.30
2023-11-14T04:17:41.291Z,20.23
2023-11-14T04:20:09.949Z,21.57
2023-11-14T04:22:38.455Z,22.03
2023-11-14T04:25:07.238Z,21.37
2023-11-14T04:27:38.346Z,22.50
2023-11-14T04:30:10.241Z,34.20
2023-11-14T04:32:40.600Z,25.13
2023-11-14T04:35:10.194Z,24.27
2023-11-14T04:37:38.191Z,25.13
2023-11-14T04:40:07.259Z,24.20
2023-11-14T04:42:36.096Z,23.73
2023-11-14T04:45:04.905Z,22.90
2023-11-14T04:47:34.730Z,22.27
2023-11-14T04:50:03.148Z,22.43
2023-11-14T04:52:31.567Z,21.20
2023-11-14T04:55:00.199Z,19.87
2023-11-14T04:57:28.609Z,20.10
2023-11-14T04:59:56.285Z,21.80
2023-11-14T05:02:25.257Z,19.10
2023-11-14T05:04:53.275Z,19.30
2023-11-14T05:07:21.682Z,19.17
2023-11-14T05:09:50.026Z,17.40
2023-11-14T05:12:19.927Z,17.37
2023-11-14T05:14:48.306Z,17.63
2023-11-14T05:17:31.649Z,17.33
2023-11-14T05:20:01.115Z,17.30
2023-11-14T05:22:30.249Z,17.50
2023-11-14T05:24:58.233Z,15.90
2023-11-14T05:27:26.148Z,16.23
2023-11-14T05:29:54.704Z,16.40
2023-11-14T05:32:22.303Z,18.60
2023-11-14T05:34:50.556Z,20.73
2023-11-14T05:37:18.976Z,23.47
2023-11-14T05:39:47.104Z,22.47
2023-11-14T05:42:14.806Z,23.70
2023-11-14T05:44:42.947Z,22.23
2023-11-14T05:47:11.529Z,23.47
2023-11-14T05:49:42.662Z,25.97
2023-11-14T05:52:11.859Z,24.93
2023-11-14T05:54:40.134Z,25.43
2023-11-14T05:57:08.335Z,26.27
2023-11-14T05:59:36.187Z,25.77
2023-11-14T06:02:04.328Z,23.60
2023-11-14T06:04:33.239Z,23.00
2023-11-14T06:07:01.663Z,22.20
2023-11-14T06:09:29.797Z,20.63
2023-11-14T06:11:58.172Z,20.73
2023-11-14T06:14:26.251Z,18.17
2023-11-14T06:16:55.385Z,18.57
2023-11-14T06:19:23.822Z,18.17
2023-11-14T06:21:52.016Z,17.80
2023-11-14T06:24:19.793Z,19.77
2023-11-14T06:26:50.752Z,22.90
2023-11-14T06:29:20.434Z,23.67
2023-11-14T06:31:51.401Z,25.93
2023-11-14T06:34:19.796Z,25.90
2023-11-14T06:36:47.659Z,29.40
2023-11-14T06:39:15.251Z,28.67
2023-11-14T06:41:48.989Z,28.13
2023-11-14T06:44:16.828Z,27.43
2023-11-14T06:46:44.951Z,28.43
2023-11-14T06:49:15.772Z,39.80
2023-11-14T06:51:44.536Z,30.23
2023-11-14T06:54:12.699Z,28.60
2023-11-14T06:56:40.482Z,28.00
2023-11-14T06:59:08.496Z,25.87
2023-11-14T07:01:37.345Z,22.80
2023-11-14T07:04:06.156Z,21.63
2023-11-14T07:06:35.644Z,18.60
2023-11-14T07:09:03.669Z,18.10
2023-11-14T07:11:31.768Z,15.07
2023-11-14T07:13:59.442Z,15.40
2023-11-14T07:16:28.865Z,14.83
2023-11-14T07:18:58.042Z,12.90
2023-11-14T07:21:26.017Z,13.87
2023-11-14T07:23:54.357Z,15.23
2023-11-14T07:26:22.402Z,12.60
2023-11-14T07:28:50.376Z,11.80
2023-11-14T07:31:18.540Z,13.10
2023-11-14T07:33:46.464Z,11.90
2023-11-14T07:36:14.642Z,11.70
2023-11-14T07:38:44.722Z,11.23
2023-11-14T07:41:13.051Z,10.30
2023-11-14T07:43:41.027Z,16.97
2023-11-14T07:46:10.523Z,19.50
2023-11-14T07:48:38.634Z,10.93
2023-11-14T07:51:06.773Z,10.97
2023-11-14T07:53:34.803Z,10.10
2023-11-14T07:56:03.141Z,11.30
2023-11-14T07:58:31.600Z,10.50
2023-11-14T08:00:59.952Z,11.37
2023-11-14T08:03:28.250Z,18.50
2023-11-14T08:05:56.942Z,15.90
2023-11-14T08:08:24.688Z,14.47
2023-11-14T08:10:52.495Z,12.10
2023-11-14T08:13:20.284Z,11.03
2023-11-14T08:15:49.538Z,11.23
2023-11-14T08:18:18.111Z,10.60
2023-11-14T08:20:46.380Z,19.23
2023-11-14T08:23:14.340Z,12.53
2023-11-14T08:25:42.421Z,10.27
2023-11-14T08:28:11.026Z,10.80
2023-11-14T08:30:39.211Z,10.37
2023-11-14T08:33:09.014Z,9.87
2023-11-14T08:35:38.090Z,10.17
2023-11-14T08:38:14.000Z,12.17
2023-11-14T08:40:47.985Z,11.20
2023-11-14T08:43:16.490Z,9.83
2023-11-14T08:45:45.156Z,9.63
2023-11-14T08:48:13.540Z,8.70
2023-11-14T08:50:42.004Z,16.73
2023-11-14T08:53:09.785Z,12.20
2023-11-14T08:55:37.855Z,12.00
2023-11-14T08:58:07.667Z,10.80
2023-11-14T09:00:37.194Z,19.23
2023-11-14T09:03:06.129Z,11.20
2023-11-14T09:05:35.740Z,13.10
2023-11-14T09:08:05.227Z,18.20
2023-11-14T09:10:33.434Z,9.60
2023-11-14T09:13:01.421Z,9.77
2023-11-14T09:15:29.483Z,9.77
2023-11-14T09:17:58.620Z,9.33
2023-11-14T09:20:27.579Z,8.83
2023-11-14T09:22:59.532Z,14.83
2023-11-14T09:25:29.397Z,11.07
2023-11-14T09:27:57.921Z,8.50
2023-11-14T09:30:25.982Z,15.23
2023-11-14T09:32:53.948Z,8.40
2023-11-14T09:35:22.325Z,7.33
2023-11-14T09:37:51.305Z,7.97
2023-11-14T09:40:23.740Z,8.10
2023-11-14T09:42:52.262Z,8.53
2023-11-14T09:45:22.033Z,7.73
2023-11-14T09:47:51.481Z,7.03
2023-11-14T09:50:22.996Z,7.40
2023-11-14T09:52:56.062Z,7.80
2023-11-14T09:55:24.102Z,8.23
2023-11-14T09:57:52.422Z,8.00
2023-11-14T10:00:20.466Z,8.40
2023-11-14T10:02:48.683Z,7.43
2023-11-14T10:05:17.975Z,7.50
2023-11-14T10:07:46.819Z,7.00
2023-11-14T10:10:14.965Z,8.17
2023-11-14T10:12:44.754Z,15.90
2023-11-14T10:15:12.827Z,7.37
2023-11-14T10:17:42.391Z,6.43
2023-11-14T10:20:11.421Z,6.70
2023-11-14T10:22:49.796Z,6.00
2023-11-14T10:25:31.367Z,6.10
2023-11-14T10:28:06.206Z,5.60
2023-11-14T10:30:47.584Z,5.30
2023-11-14T10:33:16.353Z,5.37
2023-11-14T10:35:47.393Z,5.80
2023-11-14T10:38:23.882Z,5.30
2023-11-14T10:40:56.503Z,5.10
2023-11-14T10:43:31.110Z,5.40
2023-11-14T10:46:17.244Z,5.47
2023-11-14T10:48:45.403Z,5.37
2023-11-14T10:51:14.061Z,5.70
2023-11-14T10:53:42.937Z,5.50
2023-11-14T10:56:13.945Z,5.37
2023-11-14T10:58:43.804Z,4.90
2023-11-14T11:01:12.612Z,5.57
2023-11-14T11:03:40.791Z,18.33
2023-11-14T11:06:09.332Z,17.73
2023-11-14T11:08:37.486Z,13.57
2023-11-14T11:11:08.046Z,10.33
2023-11-14T11:13:37.160Z,6.80
2023-11-14T11:16:05.403Z,5.73
2023-11-14T11:18:35.840Z,5.57
2023-11-14T11:21:13.813Z,5.90
2023-11-14T11:24:09.398Z,6.00
2023-11-14T11:27:20.775Z,7.13
2023-11-14T11:29:50.323Z,6.63
2023-11-14T11:32:31.752Z,7.27
2023-11-14T11:35:19.465Z,7.43
2023-11-14T11:37:53.836Z,6.90
2023-11-14T11:40:27.069Z,7.43
2023-11-14T11:43:14.534Z,7.80
2023-11-14T11:45:51.396Z,7.80
2023-11-14T11:48:37.732Z,7.83
2023-11-14T11:51:25.602Z,8.30
2023-11-14T11:53:54.083Z,8.90
2023-11-14T11:56:37.259Z,8.53
2023-11-14T11:59:05.543Z,8.20
2023-11-14T12:01:33.730Z,9.40
2023-11-14T12:04:02.761Z,8.67
2023-11-14T12:06:30.950Z,8.17
2023-11-14T12:09:01.090Z,8.07
2023-11-14T12:11:30.582Z,9.43
2023-11-14T12:13:58.774Z,27.17
2023-11-14T12:16:27.745Z,10.43
2023-11-14T12:18:56.631Z,9.07
2023-11-14T12:21:27.561Z,8.83
2023-11-14T12:23:56.702Z,8.23
2023-11-14T12:26:25.223Z,7.97
2023-11-14T12:28:53.629Z,8.17
2023-11-14T12:31:27.722Z,7.57
2023-11-14T12:33:58.412Z,8.60
2023-11-14T12:36:34.898Z,12.93
2023-11-14T12:39:18.245Z,10.10
2023-11-14T12:41:49.716Z,8.50
2023-11-14T12:44:23.470Z,8.90
2023-11-14T12:46:57.854Z,7.97
2023-11-14T12:49:29.281Z,8.27
2023-11-14T12:51:59.251Z,7.43
2023-11-14T12:54:27.535Z,8.03
2023-11-14T12:56:55.786Z,7.47
2023-11-14T12:59:24.304Z,7.97
2023-11-14T13:01:52.228Z,7.53
2023-11-14T13:04:20.633Z,8.20
2023-11-14T13:06:51.142Z,7.63
2023-11-14T13:09:21.203Z,7.07
2023-11-14T13:11:49.435Z,7.30
2023-11-14T13:14:17.105Z,7.20
2023-11-14T13:16:46.099Z,6.00
2023-11-14T13:19:15.513Z,15.87
2023-11-14T13:21:45.441Z,9.77
2023-11-14T13:24:13.659Z,8.73
2023-11-14T13:26:41.882Z,7.57
2023-11-14T13:29:10.285Z,8.37
2023-11-14T13:31:38.893Z,7.37
2023-11-14T13:34:06.890Z,7.93
2023-11-14T13:36:35.346Z,7.80
2023-11-14T13:39:04.216Z,7.77
2023-11-14T13:41:45.358Z,8.30
2023-11-14T13:44:19.389Z,8.97
2023-11-14T13:46:47.897Z,8.47
2023-11-14T13:49:20.615Z,8.10
2023-11-14T13:51:49.722Z,8.80
2023-11-14T13:54:20.717Z,9.60
2023-11-14T13:56:50.219Z,8.47
2023-11-14T13:59:19.182Z,8.33
2023-11-14T14:01:47.291Z,7.33
2023-11-14T14:04:14.969Z,5.57
2023-11-14T14:06:43.161Z,5.83
2023-11-14T14:09:14.668Z,6.47
2023-11-14T14:11:42.787Z,5.93
2023-11-14T14:14:11.694Z,6.63
2023-11-14T14:16:40.761Z,6.17
2023-11-14T14:19:11.209Z,5.93
2023-11-14T14:21:39.512Z,6.30
2023-11-14T14:24:09.428Z,6.03
2023-11-14T14:26:38.901Z,4.70
2023-11-14T14:29:09.657Z,6.50
2023-11-14T14:31:38.481Z,6.33
2023-11-14T14:34:08.813Z,5.70
2023-11-14T14:36:37.773Z,5.50
2023-11-14T14:39:06.434Z,5.70
2023-11-14T14:41:36.531Z,5.17
2023-11-14T14:44:08.117Z,4.73
2023-11-14T14:46:37.643Z,5.47
2023-11-14T14:49:05.864Z,6.00
2023-11-14T14:51:34.157Z,6.07
2023-11-14T14:54:04.380Z,5.47
2023-11-14T14:56:32.017Z,4.97
2023-11-14T14:59:00.344Z,4.80
2023-11-14T15:01:28.560Z,4.70
2023-11-14T15:04:00.375Z,5.03
2023-11-14T15:06:28.790Z,4.80
2023-11-14T15:08:57.047Z,5.17
2023-11-14T15:11:25.635Z,5.23
2023-11-14T15:13:53.441Z,5.43
2023-11-14T15:16:21.949Z,7.03
2023-11-14T15:18:50.817Z,5.80
2023-11-14T15:21:18.701Z,6.37
2023-11-14T15:23:48.843Z,6.80
2023-11-14T15:26:16.596Z,6.10
2023-11-14T15:28:44.597Z,6.37
2023-11-14T15:31:14.723Z,7.03
2023-11-14T15:33:44.494Z,7.27
2023-11-14T15:36:13.042Z,8.90
2023-11-14T15:38:41.267Z,8.60
2023-11-14T15:41:10.149Z,7.80
2023-11-14T15:43:38.156Z,9.50
2023-11-14T15:46:06.784Z,10.47
2023-11-14T15:48:37.794Z,9.73
2023-11-14T15:51:06.683Z,11.37
2023-11-14T15:53:34.966Z,13.77
2023-11-14T15:56:04.588Z,14.93
2023-11-14T15:58:33.375Z,14.87
2023-11-14T16:01:01.198Z,17.30
2023-11-14T16:03:36.066Z,20.03
2023-11-14T16:06:05.830Z,17.20
2023-11-14T16:08:34.086Z,13.93
2023-11-14T16:11:02.700Z,15.87
2023-11-14T16:13:31.588Z,18.43
2023-11-14T16:16:05.484Z,14.77
2023-11-14T16:18:34.134Z,13.23
2023-11-14T16:21:03.344Z,12.30
2023-11-14T16:23:31.887Z,12.37
2023-11-14T16:26:10.946Z,13.33
2023-11-14T16:28:39.475Z,12.77
2023-11-14T16:31:07.669Z,13.03
2023-11-14T16:33:35.473Z,13.07
2023-11-14T16:36:03.679Z,13.07
2023-11-14T16:38:32.434Z,13.03
2023-11-14T16:41:03.125Z,11.53
2023-11-14T16:43:31.390Z,12.03
2023-11-14T16:45:59.520Z,10.60
2023-11-14T16:48:27.817Z,10.97
2023-11-14T16:50:57.338Z,11.53
2023-11-14T16:53:25.428Z,8.47
2023-11-14T16:55:53.572Z,9.90
2023-11-14T16:58:21.889Z,10.40
2023-11-14T17:00:50.451Z,11.47
2023-11-14T17:03:20.244Z,10.13
2023-11-14T17:06:11.858Z,10.33
2023-11-14T17:08:41.444Z,9.20
2023-11-14T17:11:12.360Z,10.03
2023-11-14T17:13:40.533Z,10.07
2023-11-14T17:16:08.766Z,10.20
2023-11-14T17:18:38.717Z,10.40
2023-11-14T17:21:08.776Z,9.90
2023-11-14T17:23:39.249Z,10.43
2023-11-14T17:26:07.775Z,10.97
2023-11-14T17:28:39.231Z,10.67
2023-11-14T17:31:07.936Z,15.67
2023-11-14T17:33:35.793Z,17.37
2023-11-14T17:36:03.677Z,13.60
2023-11-14T17:38:32.158Z,26.67
2023-11-14T17:41:00.088Z,15.50
2023-11-14T17:43:28.520Z,14.10
2023-11-14T17:46:01.140Z,14.77
2023-11-14T17:48:29.880Z,14.77
2023-11-14T17:50:58.561Z,15.70
2023-11-14T17:53:27.337Z,15.90
2023-11-14T17:55:55.468Z,17.10
2023-11-14T17:58:26.467Z,17.70
2023-11-14T18:00:54.895Z,16.60
2023-11-14T18:03:23.177Z,14.47
2023-11-14T18:05:51.739Z,15.27
2023-11-14T18:08:20.735Z,13.20
2023-11-14T18:10:49.856Z,13.23
2023-11-14T18:13:18.348Z,12.87
2023-11-14T18:15:46.497Z,13.03
2023-11-14T18:18:15.002Z,14.43
2023-11-14T18:20:43.566Z,13.37
2023-11-14T18:23:12.519Z,11.90
2023-11-14T18:25:41.790Z,12.03
2023-11-14T18:28:11.246Z,11.70
2023-11-14T18:30:41.619Z,11.33
2023-11-14T18:33:12.116Z,11.50
2023-11-14T18:35:41.942Z,11.93
2023-11-14T18:38:11.539Z,13.87
2023-11-14T18:40:40.125Z,11.13
2023-11-14T18:43:08.271Z,11.57
2023-11-14T18:45:36.461Z,12.00
2023-11-14T18:48:04.964Z,12.27
2023-11-14T18:50:33.395Z,12.67
2023-11-14T18:53:01.488Z,13.07
2023-11-14T18:55:30.109Z,13.23
2023-11-14T18:57:58.276Z,13.33
2023-11-14T19:00:26.723Z,34.50
2023-11-14T19:02:55.525Z,14.50
2023-11-14T19:05:23.663Z,14.10
2023-11-14T19:07:52.186Z,13.80
2023-11-14T19:10:20.566Z,14.27
2023-11-14T19:12:50.934Z,13.30
2023-11-14T19:15:19.303Z,12.57
2023-11-14T19:17:47.621Z,11.90
2023-11-14T19:20:16.028Z,12.27
2023-11-14T19:23:36.111Z,12.37
2023-11-14T19:25:33.745Z,12.57
2023-11-14T19:28:01.822Z,13.17
2023-11-14T19:30:30.711Z,13.87
2023-11-14T19:33:00.268Z,15.03
2023-11-14T19:35:28.565Z,14.20
2023-11-14T19:37:56.626Z,14.13
2023-11-14T19:40:28.654Z,13.57
2023-11-14T19:42:57.771Z,12.83
2023-11-14T19:45:26.398Z,11.57
2023-11-14T19:47:55.150Z,11.77
2023-11-14T19:50:23.734Z,11.33
2023-11-14T19:52:52.077Z,11.73
2023-11-14T19:55:20.865Z,10.23
2023-11-14T19:57:49.155Z,9.77
2023-11-14T20:00:19.323Z,8.90
2023-11-14T20:02:47.633Z,9.03
2023-11-14T20:05:16.629Z,9.07
2023-11-14T20:07:45.096Z,9.33
2023-11-14T20:10:15.200Z,9.30
2023-11-14T20:12:44.850Z,10.20
2023-11-14T20:15:15.820Z,10.80
2023-11-14T20:17:46.466Z,9.80
2023-11-14T20:20:15.644Z,10.07
2023-11-14T20:22:44.525Z,10.53
2023-11-14T20:25:13.540Z,12.40
2023-11-14T20:27:45.775Z,11.83
2023-11-14T20:30:15.366Z,12.37
2023-11-14T20:32:46.565Z,12.67
2023-11-14T20:35:15.027Z,13.80
2023-11-14T20:37:46.363Z,14.93
2023-11-14T20:40:16.929Z,17.00
2023-11-14T20:42:46.792Z,17.83
2023-11-14T20:45:16.478Z,18.67
2023-11-14T20:47:46.320Z,18.00
2023-11-14T20:50:15.142Z,18.00
2023-11-14T20:52:43.860Z,17.07
2023-11-14T20:55:12.685Z,17.37
2023-11-14T20:57:40.965Z,16.17
2023-11-14T21:00:12.901Z,16.70
2023-11-14T21:02:41.508Z,15.43
2023-11-14T21:05:12.075Z,16.07
2023-11-14T21:07:40.759Z,14.10
2023-11-14T21:10:11.972Z,14.17
2023-11-14T21:12:45.267Z,14.23
2023-11-14T21:15:13.703Z,14.63
2023-11-14T21:17:52.343Z,14.40
2023-11-14T21:20:22.507Z,15.13
2023-11-14T21:22:51.859Z,15.40
2023-11-14T21:25:21.135Z,14.50
2023-11-14T21:27:49.458Z,13.80
2023-11-14T21:30:18.340Z,13.23
2023-11-14T21:32:49.566Z,12.33
2023-11-14T21:35:18.220Z,12.73
2023-11-14T21:37:46.804Z,12.93
2023-11-14T21:40:15.222Z,12.83
2023-11-14T21:42:45.259Z,12.67
2023-11-14T21:45:14.557Z,12.57
2023-11-14T21:47:45.807Z,12.33
2023-11-14T21:50:15.029Z,10.70
2023-11-14T21:52:44.342Z,11.73
2023-11-14T21:55:14.414Z,10.93
2023-11-14T21:57:43.929Z,12.37
2023-11-14T22:00:13.233Z,11.77
2023-11-14T22:02:42.526Z,11.60
2023-11-14T22:05:11.192Z,11.50
2023-11-14T22:07:41.494Z,11.93
2023-11-14T22:10:10.211Z,14.60
2023-11-14T22:12:38.402Z,17.53
2023-11-14T22:15:07.210Z,23.07
2023-11-14T22:17:35.938Z,25.20
2023-11-14T22:20:05.841Z,24.93
2023-11-14T22:22:33.811Z,21.27
2023-11-14T22:25:02.021Z,22.33
2023-11-14T22:27:29.876Z,20.77
2023-11-14T22:30:00.760Z,18.23
2023-11-14T22:32:29.571Z,15.07
2023-11-14T22:34:58.845Z,15.77
2023-11-14T22:37:30.031Z,15.30
2023-11-14T22:39:58.450Z,17.20
2023-11-14T22:42:26.805Z,18.17
2023-11-14T22:44:57.602Z,16.57
2023-11-14T22:47:26.644Z,17.17
2023-11-14T22:49:57.824Z,17.10
2023-11-14T22:52:26.125Z,17.73
2023-11-14T22:54:54.413Z,16.87
2023-11-14T22:57:22.855Z,17.47
2023-11-14T22:59:51.248Z,19.50
2023-11-14T23:02:19.734Z,23.10
2023-11-14T23:04:47.771Z,25.03
2023-11-14T23:07:15.767Z,26.43
2023-11-14T23:09:45.027Z,28.50
2023-11-14T23:12:13.244Z,28.43
2023-11-14T23:14:42.432Z,28.30
2023-11-14T23:17:10.782Z,28.80
2023-11-14T23:19:39.243Z,28.00
2023-11-14T23:22:07.429Z,27.53
2023-11-14T23:24:36.425Z,26.27
2023-11-14T23:27:04.590Z,26.27
2023-11-14T23:29:32.896Z,27.03
2023-11-14T23:32:00.997Z,25.97
2023-11-14T23:34:30.801Z,23.63
2023-11-14T23:36:59.959Z,24.00
2023-11-14T23:39:28.259Z,23.13
2023-11-14T23:41:56.607Z,21.23
2023-11-14T23:44:48.607Z,21.07
2023-11-14T23:47:18.574Z,22.10
2023-11-14T23:49:46.207Z,22.77
2023-11-14T23:52:14.073Z,23.80
2023-11-14T23:54:42.300Z,25.37
2023-11-14T23:57:12.159Z,32.20
2023-11-14T23:59:40.114Z,36.17
